createdAt,value
2023-10-28T00:03:38.576Z,-1.05
2023-10-28T00:08:42.066Z,-1.07
2023-10-28T00:13:45.546Z,-1.09
2023-10-28T00:18:50.507Z,-1.08
2023-10-28T00:23:54.067Z,-1.05
2023-10-28T00:28:57.641Z,-1.02
2023-10-28T00:34:02.561Z,-1.01
2023-10-28T00:39:07.919Z,-1.01
2023-10-28T00:44:11.422Z,-1.00
2023-10-28T00:49:16.745Z,-0.98
2023-10-28T00:54:20.325Z,-1.01
2023-10-28T00:59:24.784Z,-0.98
2023-10-28T01:04:29.810Z,-0.99
2023-10-28T01:09:33.862Z,-0.96
2023-10-28T01:14:37.264Z,-0.96
2023-10-28T01:19:42.583Z,-0.99
2023-10-28T01:24:48.136Z,-0.96
2023-10-28T01:29:52.331Z,-1.00
2023-10-28T01:34:56.544Z,-0.94
2023-10-28T01:40:01.472Z,-0.94
2023-10-28T01:45:08.428Z,-0.96
2023-10-28T01:50:13.518Z,-1.05
2023-10-28T01:55:19.259Z,-0.95
2023-10-28T02:00:22.811Z,-0.92
2023-10-28T02:05:26.487Z,-0.92
2023-10-28T02:10:31.597Z,-0.91
2023-10-28T02:15:35.356Z,-0.90
2023-10-28T02:20:38.985Z,-0.90
2023-10-28T02:25:44.561Z,-0.90
2023-10-28T02:30:48.138Z,-0.91
2023-10-28T02:35:51.668Z,-0.90
2023-10-28T02:40:56.821Z,-0.90
2023-10-28T02:46:00.487Z,-0.87
2023-10-28T02:51:08.371Z,-0.88
2023-10-28T02:56:13.550Z,-0.88
2023-10-28T03:01:17.507Z,-0.88
2023-10-28T03:06:20.954Z,-0.86
2023-10-28T03:11:25.986Z,-0.86
2023-10-28T03:16:29.551Z,-0.86
2023-10-28T03:21:33.087Z,-0.85
2023-10-28T03:26:38.386Z,-0.84
2023-10-28T03:31:42.174Z,-0.83
2023-10-28T03:36:46.105Z,-0.81
2023-10-28T03:41:51.185Z,-0.81
2023-10-28T03:46:54.732Z,-0.84
2023-10-28T03:52:00.139Z,-0.84
2023-10-28T03:57:05.338Z,-0.84
2023-10-28T04:02:09.478Z,-0.82
2023-10-28T04:07:13.027Z,-0.83
2023-10-28T04:12:18.283Z,-0.82
2023-10-28T04:17:21.898Z,-0.82
2023-10-28T04:22:25.333Z,-0.82
2023-10-28T04:27:30.353Z,-0.78
2023-10-28T04:32:34.374Z,-0.78
2023-10-28T04:37:37.978Z,-0.75
2023-10-28T04:42:43.242Z,-0.74
2023-10-28T04:47:46.950Z,-0.71
2023-10-28T04:52:50.839Z,-0.68
2023-10-28T04:57:55.861Z,-0.64
2023-10-28T05:02:59.556Z,-0.57
2023-10-28T05:08:03.179Z,-0.52
2023-10-28T05:13:08.281Z,-0.46
2023-10-28T05:18:12.028Z,-0.38
2023-10-28T05:23:15.939Z,-0.32
2023-10-28T05:28:21.226Z,-0.29
2023-10-28T05:33:24.860Z,-0.16
2023-10-28T05:38:28.351Z,-0.07
2023-10-28T05:43:33.519Z,-0.01
2023-10-28T05:48:37.089Z,0.08
2023-10-28T05:53:41.017Z,0.17
2023-10-28T05:58:45.994Z,0.25
2023-10-28T06:03:50.960Z,0.37
2023-10-28T06:08:54.725Z,0.44
2023-10-28T06:13:59.639Z,0.57
2023-10-28T06:19:03.365Z,0.63
2023-10-28T06:24:08.622Z,0.74
2023-10-28T06:29:13.699Z,0.80
2023-10-28T06:34:17.704Z,0.85
2023-10-28T06:39:21.585Z,0.94
2023-10-28T06:44:26.496Z,1.02
2023-10-28T06:49:30.254Z,1.06
2023-10-28T06:54:33.782Z,1.09
2023-10-28T06:59:38.812Z,1.15
2023-10-28T07:04:43.076Z,1.20
2023-10-28T07:09:47.237Z,1.24
2023-10-28T07:14:52.422Z,1.32
2023-10-28T07:19:56.088Z,1.36
2023-10-28T07:24:59.704Z,1.37
2023-10-28T07:30:05.161Z,1.33
2023-10-28T07:35:10.094Z,1.39
2023-10-28T07:40:14.377Z,1.40
2023-10-28T07:45:21.569Z,1.42
2023-10-28T07:50:25.281Z,1.39
2023-10-28T07:55:29.887Z,1.38
2023-10-28T08:00:35.294Z,1.45
2023-10-28T08:05:38.923Z,1.44
2023-10-28T08:10:42.988Z,1.37
2023-10-28T08:15:50.954Z,1.29
2023-10-28T08:20:54.878Z,1.28
2023-10-28T08:25:58.869Z,1.29
2023-10-28T08:31:04.792Z,1.28
2023-10-28T08:36:09.967Z,1.40
2023-10-28T08:41:15.778Z,1.48
2023-10-28T08:46:21.355Z,1.46
2023-10-28T08:51:26.296Z,1.49
2023-10-28T08:56:32.486Z,1.58
2023-10-28T09:01:38.935Z,1.65
2023-10-28T09:06:44.086Z,1.71
2023-10-28T09:11:49.125Z,1.65
2023-10-28T09:16:56.568Z,1.62
2023-10-28T09:22:01.968Z,1.64
2023-10-28T09:27:06.096Z,1.73
2023-10-28T09:32:12.011Z,1.77
2023-10-28T09:37:17.317Z,1.71
2023-10-28T09:42:23.099Z,1.65
2023-10-28T09:47:36.339Z,1.63
2023-10-28T09:52:44.144Z,1.61
2023-10-28T09:57:48.140Z,1.58
2023-10-28T10:03:05.512Z,1.39
2023-10-28T10:08:20.203Z,1.50
2023-10-28T10:13:24.526Z,1.60
2023-10-28T10:18:35.249Z,1.58
2023-10-28T10:23:44.138Z,1.51
2023-10-28T10:28:48.872Z,1.45
2023-10-28T10:34:05.391Z,1.40
2023-10-28T10:39:16.214Z,1.15
2023-10-28T10:44:26.346Z,1.39
2023-10-28T10:49:32.538Z,1.38
2023-10-28T10:54:40.247Z,1.18
2023-10-28T10:59:45.402Z,1.38
2023-10-28T11:04:50.824Z,1.37
2023-10-28T11:09:55.462Z,1.29
2023-10-28T11:14:59.116Z,1.18
2023-10-28T11:20:06.265Z,1.16
2023-10-28T11:25:10.499Z,1.11
2023-10-28T11:30:14.521Z,1.09
2023-10-28T11:35:21.422Z,1.08
2023-10-28T11:40:25.178Z,1.08
2023-10-28T11:45:29.170Z,1.06
2023-10-28T11:50:34.354Z,1.02
2023-10-28T11:55:39.812Z,1.00
2023-10-28T12:00:43.548Z,0.99
2023-10-28T12:05:48.655Z,0.96
2023-10-28T12:10:52.374Z,0.94
2023-10-28T12:15:56.407Z,0.90
2023-10-28T12:21:03.108Z,0.88
2023-10-28T12:26:08.127Z,0.86
2023-10-28T12:31:11.829Z,0.84
2023-10-28T12:36:18.291Z,0.79
2023-10-28T12:41:22.208Z,0.57
2023-10-28T12:46:26.083Z,0.76
2023-10-28T12:51:35.923Z,0.77
2023-10-28T12:56:41.368Z,0.79
2023-10-28T13:01:46.605Z,0.73
2023-10-28T13:06:52.941Z,0.71
2023-10-28T13:11:57.974Z,0.68
2023-10-28T13:17:02.025Z,0.64
2023-10-28T13:22:08.144Z,0.57
2023-10-28T13:27:12.992Z,0.53
2023-10-28T13:32:17.156Z,0.48
2023-10-28T13:37:22.805Z,0.44
2023-10-28T13:42:27.448Z,0.42
2023-10-28T13:47:31.369Z,0.50
2023-10-28T13:52:37.490Z,0.36
2023-10-28T13:57:41.068Z,0.43
2023-10-28T14:02:46.431Z,0.38
2023-10-28T14:07:51.518Z,0.35
2023-10-28T14:12:59.212Z,0.31
2023-10-28T14:18:05.615Z,0.43
2023-10-28T14:23:12.231Z,0.41
2023-10-28T14:28:18.453Z,0.35
2023-10-28T14:33:21.980Z,0.30
2023-10-28T14:38:27.673Z,0.29
2023-10-28T14:43:34.484Z,0.26
2023-10-28T14:48:39.074Z,0.25
2023-10-28T14:53:44.857Z,0.22
2023-10-28T14:58:48.743Z,0.22
2023-10-28T15:03:53.181Z,0.22
2023-10-28T15:08:58.576Z,0.22
2023-10-28T15:14:02.197Z,0.23
2023-10-28T15:19:06.794Z,0.22
2023-10-28T15:24:12.195Z,0.24
2023-10-28T15:29:16.069Z,0.22
2023-10-28T15:34:19.783Z,0.21
2023-10-28T15:39:25.502Z,0.18
2023-10-28T15:44:32.311Z,0.18
2023-10-28T15:49:37.820Z,0.14
2023-10-28T15:54:44.032Z,0.14
2023-10-28T15:59:48.333Z,0.14
2023-10-28T16:04:52.740Z,0.12
2023-10-28T16:09:59.271Z,0.12
2023-10-28T16:15:10.343Z,0.12
2023-10-28T16:20:15.809Z,0.11
2023-10-28T16:25:21.064Z,0.10
2023-10-28T16:30:24.864Z,0.10
2023-10-28T16:35:30.166Z,0.11
2023-10-28T16:40:37.024Z,0.11
2023-10-28T16:45:40.963Z,0.11
2023-10-28T16:50:44.495Z,0.08
2023-10-28T16:55:49.504Z,0.08
2023-10-28T17:00:54.591Z,0.08
2023-10-28T17:05:58.729Z,0.09
2023-10-28T17:11:04.858Z,0.09
2023-10-28T17:16:16.245Z,0.09
2023-10-28T17:21:21.173Z,0.08
2023-10-28T17:26:27.635Z,0.05
2023-10-28T17:31:31.831Z,0.02
2023-10-28T17:36:35.517Z,-0.01
2023-10-28T17:41:41.667Z,0.00
2023-10-28T17:46:49.795Z,0.02
2023-10-28T17:51:57.199Z,-0.01
2023-10-28T17:57:03.165Z,-0.01
2023-10-28T18:02:07.138Z,-0.01
2023-10-28T18:07:15.446Z,0.00
2023-10-28T18:12:20.642Z,-0.02
2023-10-28T18:17:25.685Z,-0.03
2023-10-28T18:22:29.315Z,-0.05
2023-10-28T18:27:34.295Z,-0.04
2023-10-28T18:32:41.046Z,-0.03
2023-10-28T18:37:44.726Z,0.00
2023-10-28T18:42:49.832Z,0.01
2023-10-28T18:47:54.905Z,-0.01
2023-10-28T18:52:59.606Z,-0.03
2023-10-28T18:58:06.191Z,0.00
2023-10-28T19:03:14.707Z,-0.03
2023-10-28T19:08:19.932Z,-0.02
2023-10-28T19:13:25.538Z,-0.01
2023-10-28T19:18:29.264Z,-0.03
2023-10-28T19:23:33.337Z,-0.04
2023-10-28T19:28:39.204Z,-0.03
2023-10-28T19:33:44.219Z,-0.04
2023-10-28T19:38:48.117Z,-0.06
2023-10-28T19:43:53.839Z,-0.03
2023-10-28T19:48:57.775Z,-0.02
2023-10-28T19:54:01.459Z,0.02
2023-10-28T19:59:08.806Z,0.03
2023-10-28T20:04:12.397Z,-0.17
2023-10-28T20:09:16.791Z,-0.01
2023-10-28T20:14:22.299Z,-0.01
2023-10-28T20:19:26.558Z,-0.03
2023-10-28T20:24:31.059Z,-0.03
2023-10-28T20:29:38.946Z,-0.03
2023-10-28T20:34:42.599Z,-0.03
2023-10-28T20:39:47.845Z,-0.04
2023-10-28T20:44:53.112Z,-0.04
2023-10-28T20:49:56.972Z,-0.06
2023-10-28T20:55:00.586Z,-0.04
2023-10-28T21:00:06.570Z,-0.05
2023-10-28T21:05:12.008Z,-0.05
2023-10-28T21:10:17.508Z,-0.05
2023-10-28T21:15:22.968Z,-0.04
2023-10-28T21:20:26.485Z,-0.03
2023-10-28T21:25:30.101Z,-0.01
2023-10-28T21:30:35.694Z,0.03
2023-10-28T21:35:39.196Z,0.07
2023-10-28T21:40:44.159Z,0.06
2023-10-28T21:45:58.570Z,0.06
2023-10-28T21:51:02.123Z,0.08
2023-10-28T21:56:07.013Z,0.06
2023-10-28T22:01:12.857Z,0.04
2023-10-28T22:06:16.375Z,0.05
2023-10-28T22:11:19.905Z,0.04
2023-10-28T22:16:25.709Z,-0.01
2023-10-28T22:21:29.228Z,-0.03
2023-10-28T22:26:32.823Z,-0.01
2023-10-28T22:31:37.829Z,0.01
2023-10-28T22:36:41.430Z,0.03
2023-10-28T22:41:45.046Z,0.02
2023-10-28T22:46:50.148Z,0.04
2023-10-28T22:51:53.661Z,0.03
2023-10-28T22:56:57.204Z,0.04
2023-10-28T23:02:02.326Z,0.02
2023-10-28T23:07:06.238Z,-0.01
2023-10-28T23:12:10.762Z,-0.03
2023-10-28T23:17:15.690Z,-0.04
2023-10-28T23:22:19.290Z,-0.03
2023-10-28T23:27:24.019Z,-0.03
2023-10-28T23:32:29.061Z,-0.09
2023-10-28T23:37:34.703Z,-0.13
2023-10-28T23:42:38.349Z,-0.17
2023-10-28T23:47:44.407Z,-0.19
2023-10-28T23:52:48.018Z,-0.19
2023-10-28T23:57:52.058Z,-0.21
